createdAt,value
2022-09-18T00:02:25.169Z,30.32
2022-09-18T00:04:59.549Z,30.29
2022-09-18T00:07:30.507Z,30.18
2022-09-18T00:10:04.591Z,30.19
2022-09-18T00:12:37.411Z,30.19
2022-09-18T00:15:13.633Z,30.15
2022-09-18T00:17:47.243Z,30.19
2022-09-18T00:20:18.222Z,30.16
2022-09-18T00:22:58.827Z,30.16
2022-09-18T00:25:33.218Z,30.12
2022-09-18T00:28:07.736Z,30.14
2022-09-18T00:30:41.333Z,30.14
2022-09-18T00:33:14.423Z,30.19
2022-09-18T00:35:50.458Z,30.23
2022-09-18T00:38:23.597Z,30.15
2022-09-18T00:40:58.047Z,30.14
2022-09-18T00:43:33.581Z,30.19
2022-09-18T00:46:17.649Z,30.22
2022-09-18T00:48:59.175Z,30.18
2022-09-18T00:51:42.672Z,30.29
2022-09-18T00:54:25.022Z,30.18
2022-09-18T00:57:03.395Z,30.21
2022-09-18T00:59:38.433Z,30.14
2022-09-18T01:02:15.128Z,30.11
2022-09-18T01:04:47.630Z,30.13
2022-09-18T01:07:43.482Z,30.24
2022-09-18T01:10:39.639Z,30.26
2022-09-18T01:13:39.117Z,30.31
2022-09-18T01:16:30.313Z,30.33
2022-09-18T01:19:31.900Z,30.31
2022-09-18T01:22:14.747Z,30.37
2022-09-18T01:25:03.538Z,30.47
2022-09-18T01:28:03.509Z,30.53
2022-09-18T01:30:37.903Z,30.39
2022-09-18T01:33:52.427Z,30.54
2022-09-18T01:36:30.907Z,30.57
2022-09-18T01:39:28.893Z,30.67
2022-09-18T01:42:02.796Z,30.66
2022-09-18T01:44:36.216Z,30.66
2022-09-18T01:47:11.807Z,30.70
2022-09-18T01:49:51.280Z,30.56
2022-09-18T01:52:57.912Z,30.65
2022-09-18T01:55:35.439Z,30.58
2022-09-18T01:58:21.831Z,30.70
2022-09-18T02:01:02.385Z,30.88
2022-09-18T02:03:58.790Z,30.95
2022-09-18T02:08:15.406Z,31.03
2022-09-18T02:10:35.642Z,31.14
2022-09-18T02:13:18.971Z,31.27
2022-09-18T02:15:52.447Z,31.21
2022-09-18T02:18:37.640Z,31.25
2022-09-18T02:21:16.806Z,31.26
2022-09-18T02:23:49.357Z,31.35
2022-09-18T02:26:22.725Z,31.52
2022-09-18T02:28:56.835Z,31.44
2022-09-18T02:31:28.643Z,31.16
2022-09-18T02:34:02.493Z,31.19
2022-09-18T02:37:08.858Z,31.59
2022-09-18T02:40:11.695Z,31.82
2022-09-18T02:43:06.646Z,31.88
2022-09-18T02:46:09.869Z,32.02
2022-09-18T02:48:44.422Z,31.95
2022-09-18T02:52:11.576Z,31.86
2022-09-18T02:58:35.512Z,31.77
2022-09-18T03:01:11.766Z,31.84
2022-09-18T03:03:45.143Z,32.08
2022-09-18T03:06:17.213Z,31.71
2022-09-18T03:08:48.932Z,31.91
2022-09-18T03:11:20.887Z,32.03
2022-09-18T03:13:52.955Z,31.89
2022-09-18T03:16:24.947Z,31.80
2022-09-18T03:18:57.120Z,31.79
2022-09-18T03:21:31.315Z,32.14
2022-09-18T03:24:04.072Z,32.28
2022-09-18T03:26:38.611Z,32.18
2022-09-18T03:29:14.996Z,32.05
2022-09-18T03:31:46.779Z,32.29
2022-09-18T03:34:20.394Z,32.22
2022-09-18T03:36:52.170Z,32.21
2022-09-18T03:39:23.276Z,32.25
2022-09-18T03:41:57.876Z,32.66
2022-09-18T03:44:30.826Z,32.67
2022-09-18T03:47:08.104Z,32.77
2022-09-18T03:49:40.632Z,32.79
2022-09-18T03:52:12.153Z,32.89
2022-09-18T03:54:50.500Z,32.50
2022-09-18T03:57:41.584Z,32.50
2022-09-18T04:00:32.563Z,32.58
2022-09-18T04:03:10.696Z,32.92
2022-09-18T04:06:01.384Z,33.18
2022-09-18T04:08:55.539Z,33.22
2022-09-18T04:11:36.025Z,33.29
2022-09-18T04:14:09.526Z,33.44
2022-09-18T04:16:41.251Z,33.54
2022-09-18T04:19:35.902Z,33.50
2022-09-18T04:22:07.781Z,33.58
2022-09-18T04:24:42.269Z,33.70
2022-09-18T04:27:14.922Z,33.71
2022-09-18T04:29:48.255Z,33.43
2022-09-18T04:32:20.992Z,33.88
2022-09-18T04:34:52.942Z,33.97
2022-09-18T04:37:24.365Z,34.10
2022-09-18T04:39:56.631Z,34.04
2022-09-18T04:42:28.231Z,34.25
2022-09-18T04:44:59.590Z,34.37
2022-09-18T04:47:32.311Z,34.48
2022-09-18T04:50:03.990Z,34.41
2022-09-18T04:52:34.460Z,34.27
2022-09-18T04:55:07.154Z,33.98
2022-09-18T04:57:43.636Z,34.15
2022-09-18T05:00:14.884Z,34.39
2022-09-18T05:02:46.645Z,34.62
2022-09-18T05:05:22.954Z,34.68
2022-09-18T05:07:54.016Z,34.57
2022-09-18T05:10:26.133Z,34.81
2022-09-18T05:12:57.205Z,34.95
2022-09-18T05:15:30.336Z,34.76
2022-09-18T05:18:11.098Z,34.59
2022-09-18T05:20:43.256Z,34.76
2022-09-18T05:23:14.965Z,34.71
2022-09-18T05:25:46.175Z,34.34
2022-09-18T05:28:21.955Z,34.61
2022-09-18T05:31:04.526Z,34.83
2022-09-18T05:33:46.179Z,34.62
2022-09-18T05:36:17.355Z,34.47
2022-09-18T05:38:50.569Z,34.99
2022-09-18T05:41:24.816Z,35.28
2022-09-18T05:43:55.896Z,35.10
2022-09-18T05:46:27.334Z,35.30
2022-09-18T05:49:03.482Z,35.21
2022-09-18T05:51:34.978Z,35.12
2022-09-18T05:54:07.000Z,35.17
2022-09-18T05:56:43.668Z,35.30
2022-09-18T05:59:17.336Z,35.81
2022-09-18T06:01:51.792Z,35.99
2022-09-18T06:04:48.332Z,35.81
2022-09-18T06:07:19.447Z,36.21
2022-09-18T06:09:50.819Z,35.77
2022-09-18T06:12:21.307Z,36.02
2022-09-18T06:14:52.778Z,36.21
2022-09-18T06:17:24.317Z,36.08
2022-09-18T06:19:58.187Z,36.18
2022-09-18T06:22:29.666Z,35.90
2022-09-18T06:25:01.829Z,36.04
2022-09-18T06:27:36.941Z,36.46
2022-09-18T06:30:30.727Z,36.76
2022-09-18T06:33:35.922Z,36.29
2022-09-18T06:36:11.483Z,36.44
2022-09-18T06:38:54.513Z,36.14
2022-09-18T06:41:26.867Z,36.60
2022-09-18T06:43:58.360Z,36.46
2022-09-18T06:46:37.646Z,36.12
2022-09-18T06:49:19.777Z,36.22
2022-09-18T06:51:51.729Z,36.10
2022-09-18T06:54:22.532Z,36.09
2022-09-18T06:56:54.119Z,36.31
2022-09-18T06:59:25.604Z,36.27
2022-09-18T07:01:56.948Z,36.14
2022-09-18T07:04:48.719Z,36.03
2022-09-18T07:07:21.595Z,36.46
2022-09-18T07:09:55.454Z,36.44
2022-09-18T07:12:38.705Z,36.39
2022-09-18T07:15:12.095Z,36.49
2022-09-18T07:17:46.674Z,36.51
2022-09-18T07:20:21.473Z,36.61
2022-09-18T07:23:07.146Z,36.82
2022-09-18T07:25:48.523Z,36.86
2022-09-18T07:28:21.637Z,36.53
2022-09-18T07:31:06.842Z,36.70
2022-09-18T07:33:39.698Z,36.84
2022-09-18T07:36:11.769Z,36.95
2022-09-18T07:38:43.097Z,36.71
2022-09-18T07:41:14.334Z,37.16
2022-09-18T07:43:51.161Z,37.07
2022-09-18T07:46:24.067Z,37.16
2022-09-18T07:49:01.768Z,36.93
2022-09-18T07:51:35.350Z,36.96
2022-09-18T07:54:07.879Z,37.07
2022-09-18T07:56:55.735Z,37.26
2022-09-18T07:59:31.024Z,37.22
2022-09-18T08:02:06.976Z,37.38
2022-09-18T08:04:43.679Z,37.20
2022-09-18T08:07:23.683Z,36.82
2022-09-18T08:09:56.103Z,37.29
2022-09-18T08:12:45.459Z,37.27
2022-09-18T08:15:45.227Z,37.20
2022-09-18T08:18:30.292Z,37.24
2022-09-18T08:21:28.451Z,36.98
2022-09-18T08:23:59.744Z,37.22
2022-09-18T08:26:30.885Z,37.05
2022-09-18T08:29:02.282Z,37.09
2022-09-18T08:31:33.331Z,37.03
2022-09-18T08:34:07.176Z,37.20
2022-09-18T08:36:46.592Z,37.17
2022-09-18T08:39:24.607Z,36.90
2022-09-18T08:42:26.968Z,37.50
2022-09-18T08:45:05.822Z,37.31
2022-09-18T08:47:49.875Z,37.33
2022-09-18T08:50:38.751Z,37.12
2022-09-18T08:53:31.226Z,37.17
2022-09-18T08:56:29.356Z,37.46
2022-09-18T08:59:34.869Z,37.54
2022-09-18T09:02:24.961Z,37.25
2022-09-18T09:05:05.925Z,37.07
2022-09-18T09:07:54.980Z,37.07
2022-09-18T09:10:51.508Z,37.26
2022-09-18T09:13:43.380Z,37.38
2022-09-18T09:16:20.442Z,37.11
2022-09-18T09:19:21.637Z,37.20
2022-09-18T09:22:27.029Z,37.42
2022-09-18T09:25:30.130Z,37.29
2022-09-18T09:28:54.751Z,37.25
2022-09-18T09:31:51.962Z,37.26
2022-09-18T09:35:20.032Z,37.20
2022-09-18T09:38:36.577Z,37.11
2022-09-18T09:41:32.656Z,36.92
2022-09-18T09:44:17.886Z,37.03
2022-09-18T09:46:57.387Z,36.92
2022-09-18T09:50:09.264Z,37.10
2022-09-18T09:52:44.572Z,36.83
2022-09-18T09:55:22.142Z,36.71
2022-09-18T09:58:41.048Z,36.72
2022-09-18T10:01:19.203Z,36.55
2022-09-18T10:03:57.748Z,36.74
2022-09-18T10:06:38.098Z,36.40
2022-09-18T10:09:31.457Z,36.51
2022-09-18T10:12:18.696Z,36.78
2022-09-18T10:14:58.358Z,36.55
2022-09-18T10:17:32.754Z,36.53
2022-09-18T10:20:08.006Z,36.63
2022-09-18T10:22:39.829Z,36.36
2022-09-18T10:25:23.031Z,36.54
2022-09-18T10:27:58.224Z,36.66
2022-09-18T10:30:33.805Z,36.54
2022-09-18T10:33:27.639Z,36.63
2022-09-18T10:36:25.054Z,36.69
2022-09-18T10:39:04.350Z,36.52
2022-09-18T10:41:42.656Z,36.50
2022-09-18T10:44:23.645Z,36.44
2022-09-18T10:47:23.197Z,36.44
2022-09-18T10:50:10.299Z,36.21
2022-09-18T10:52:51.226Z,36.44
2022-09-18T10:55:36.182Z,36.32
2022-09-18T10:58:16.977Z,36.45
2022-09-18T11:01:06.937Z,36.40
2022-09-18T11:03:47.026Z,36.15
2022-09-18T11:06:31.476Z,36.25
2022-09-18T11:09:14.643Z,36.30
2022-09-18T11:11:52.563Z,36.33
2022-09-18T11:14:33.870Z,36.12
2022-09-18T11:17:17.750Z,36.26
2022-09-18T11:19:54.079Z,36.26
2022-09-18T11:22:50.584Z,36.04
2022-09-18T11:25:30.968Z,36.13
2022-09-18T11:28:31.287Z,36.19
2022-09-18T11:31:17.737Z,36.23
2022-09-18T11:34:04.174Z,36.08
2022-09-18T11:36:42.377Z,35.97
2022-09-18T11:39:24.571Z,36.14
2022-09-18T11:41:57.088Z,35.87
2022-09-18T11:44:37.850Z,36.07
2022-09-18T11:47:36.886Z,36.11
2022-09-18T11:50:07.949Z,35.64
2022-09-18T11:52:44.880Z,35.84
2022-09-18T11:55:38.005Z,35.90
2022-09-18T11:58:16.959Z,35.89
2022-09-18T12:01:05.040Z,35.83
2022-09-18T12:03:46.803Z,35.61
2022-09-18T12:06:33.276Z,35.77
2022-09-18T12:09:40.127Z,35.61
2022-09-18T12:12:40.144Z,35.51
2022-09-18T12:15:21.954Z,35.46
2022-09-18T12:18:20.567Z,35.45
2022-09-18T12:20:58.720Z,35.26
2022-09-18T12:23:31.647Z,35.27
2022-09-18T12:26:38.244Z,35.42
2022-09-18T12:29:23.558Z,35.16
2022-09-18T12:32:29.875Z,35.45
2022-09-18T12:35:27.142Z,35.27
2022-09-18T12:38:03.410Z,35.30
2022-09-18T12:40:48.703Z,35.31
2022-09-18T12:43:45.268Z,35.30
2022-09-18T12:46:36.126Z,35.20
2022-09-18T12:49:44.060Z,35.19
2022-09-18T12:53:08.548Z,35.00
2022-09-18T12:55:54.119Z,34.90
2022-09-18T12:59:09.270Z,34.83
2022-09-18T13:01:51.316Z,34.79
2022-09-18T13:04:34.222Z,34.74
2022-09-18T13:07:30.453Z,34.75
2022-09-18T13:10:31.004Z,34.64
2022-09-18T13:13:23.546Z,34.56
2022-09-18T13:15:58.652Z,34.57
2022-09-18T13:18:39.305Z,34.48
2022-09-18T13:21:33.645Z,34.54
2022-09-18T13:24:06.513Z,34.39
2022-09-18T13:26:44.513Z,34.38
2022-09-18T13:29:49.930Z,34.42
2022-09-18T13:32:34.016Z,34.37
2022-09-18T13:35:10.445Z,34.30
2022-09-18T13:37:41.095Z,34.25
2022-09-18T13:40:57.698Z,34.30
2022-09-18T13:43:43.867Z,34.21
2022-09-18T13:46:43.141Z,34.23
2022-09-18T13:50:38.598Z,34.14
2022-09-18T13:56:04.449Z,34.11
2022-09-18T13:58:41.885Z,34.02
2022-09-18T14:01:49.280Z,34.01
2022-09-18T14:04:56.132Z,34.13
2022-09-18T14:07:38.993Z,33.96
2022-09-18T14:16:44.964Z,33.82
2022-09-18T14:19:38.693Z,34.00
2022-09-18T14:22:50.268Z,33.82
2022-09-18T14:25:52.881Z,33.53
2022-09-18T14:28:23.991Z,33.56
2022-09-18T14:31:38.544Z,33.63
2022-09-18T14:34:19.396Z,33.51
2022-09-18T14:37:05.560Z,33.37
2022-09-18T14:39:43.119Z,33.33
2022-09-18T14:42:44.158Z,33.33
2022-09-18T14:45:15.396Z,33.35
2022-09-18T14:47:50.841Z,33.15
2022-09-18T14:50:36.383Z,33.16
2022-09-18T14:53:31.122Z,33.04
2022-09-18T14:56:13.835Z,33.03
2022-09-18T14:58:50.976Z,32.87
2022-09-18T15:01:30.243Z,32.88
2022-09-18T15:04:05.183Z,32.80
2022-09-18T15:06:41.992Z,32.84
2022-09-18T15:09:18.858Z,32.79
2022-09-18T15:12:02.350Z,32.66
2022-09-18T15:14:45.560Z,32.70
2022-09-18T15:17:25.666Z,32.70
2022-09-18T15:20:01.890Z,32.67
2022-09-18T15:22:35.286Z,32.62
2022-09-18T15:25:07.747Z,32.50
2022-09-18T15:27:40.144Z,32.51
2022-09-18T15:30:24.782Z,32.62
2022-09-18T15:33:08.536Z,32.58
2022-09-18T15:35:40.406Z,32.46
2022-09-18T15:38:27.856Z,32.49
2022-09-18T15:40:58.260Z,32.34
2022-09-18T15:43:44.744Z,32.49
2022-09-18T15:46:30.690Z,32.44
2022-09-18T15:49:04.532Z,32.47
2022-09-18T15:51:38.566Z,32.47
2022-09-18T15:54:13.136Z,32.31
2022-09-18T15:56:55.355Z,32.44
2022-09-18T15:59:42.170Z,32.33
2022-09-18T16:02:43.622Z,32.51
2022-09-18T16:05:17.191Z,32.47
2022-09-18T16:08:04.461Z,32.51
2022-09-18T16:10:47.882Z,32.53
2022-09-18T16:13:21.468Z,32.47
2022-09-18T16:16:16.190Z,32.59
2022-09-18T16:19:14.935Z,32.47
2022-09-18T16:21:46.491Z,32.38
2022-09-18T16:25:01.373Z,32.46
2022-09-18T16:27:46.968Z,32.24
2022-09-18T16:30:17.923Z,32.18
2022-09-18T16:32:58.428Z,32.26
2022-09-18T16:35:39.213Z,32.15
2022-09-18T16:38:11.462Z,32.23
2022-09-18T16:40:56.991Z,32.24
2022-09-18T16:43:31.467Z,32.19
2022-09-18T16:46:23.031Z,32.23
2022-09-18T16:49:06.198Z,32.10
2022-09-18T16:51:39.987Z,32.07
2022-09-18T16:54:14.001Z,32.07
2022-09-18T16:56:55.023Z,32.11
2022-09-18T16:59:31.435Z,32.06
2022-09-18T17:02:05.268Z,32.01
2022-09-18T17:04:40.146Z,31.93
2022-09-18T17:07:13.966Z,31.96
2022-09-18T17:09:44.973Z,31.98
2022-09-18T17:12:16.442Z,31.88
2022-09-18T17:14:51.421Z,31.91
2022-09-18T17:17:24.811Z,31.83
2022-09-18T17:19:57.128Z,31.86
2022-09-18T17:22:30.387Z,31.77
2022-09-18T17:25:05.135Z,31.79
2022-09-18T17:27:43.825Z,31.87
2022-09-18T17:30:16.370Z,31.73
2022-09-18T17:32:53.763Z,31.82
2022-09-18T17:35:30.640Z,31.77
2022-09-18T17:38:01.098Z,31.72
2022-09-18T17:40:34.724Z,31.74
2022-09-18T17:43:05.163Z,31.79
2022-09-18T17:45:35.958Z,31.85
2022-09-18T17:48:10.905Z,31.80
2022-09-18T17:50:57.105Z,31.75
2022-09-18T17:53:29.609Z,31.76
2022-09-18T17:56:00.832Z,31.69
2022-09-18T17:58:33.044Z,31.57
2022-09-18T18:01:03.351Z,31.80
2022-09-18T18:03:33.535Z,31.60
2022-09-18T18:06:06.775Z,31.46
2022-09-18T18:08:40.867Z,31.60
2022-09-18T18:11:17.985Z,31.64
2022-09-18T18:13:52.087Z,31.57
2022-09-18T18:16:29.306Z,31.59
2022-09-18T18:19:05.253Z,31.57
2022-09-18T18:21:38.063Z,31.46
2022-09-18T18:24:28.799Z,31.56
2022-09-18T18:27:06.079Z,31.47
2022-09-18T18:29:41.499Z,31.50
2022-09-18T18:32:14.656Z,31.53
2022-09-18T18:34:47.543Z,31.53
2022-09-18T18:37:25.018Z,31.46
2022-09-18T18:39:57.021Z,31.45
2022-09-18T18:42:29.730Z,31.25
2022-09-18T18:45:03.187Z,31.13
2022-09-18T18:47:34.473Z,31.34
2022-09-18T18:50:07.135Z,31.27
2022-09-18T18:52:37.728Z,31.42
2022-09-18T18:55:09.363Z,31.21
2022-09-18T18:57:44.495Z,31.29
2022-09-18T19:00:16.856Z,31.27
2022-09-18T19:02:50.705Z,31.32
2022-09-18T19:05:46.302Z,31.38
2022-09-18T19:08:52.324Z,31.30
2022-09-18T19:11:24.972Z,31.23
2022-09-18T19:13:58.403Z,31.28
2022-09-18T19:16:40.099Z,31.34
2022-09-18T19:19:25.075Z,31.23
2022-09-18T19:22:04.119Z,31.27
2022-09-18T19:24:44.552Z,31.27
2022-09-18T19:27:23.566Z,31.27
2022-09-18T19:30:08.419Z,31.25
2022-09-18T19:32:40.805Z,31.26
2022-09-18T19:35:12.317Z,31.28
2022-09-18T19:37:45.202Z,31.40
2022-09-18T19:40:22.039Z,31.32
2022-09-18T19:43:05.007Z,31.40
2022-09-18T19:45:43.681Z,31.41
2022-09-18T19:51:24.051Z,31.36
2022-09-18T19:53:55.632Z,31.37
2022-09-18T19:56:42.142Z,31.41
2022-09-18T19:59:14.482Z,31.44
2022-09-18T20:01:46.615Z,31.46
2022-09-18T20:04:18.638Z,31.35
2022-09-18T20:06:50.275Z,31.35
2022-09-18T20:09:21.741Z,31.31
2022-09-18T20:11:53.628Z,31.32
2022-09-18T20:14:47.087Z,31.35
2022-09-18T20:17:34.156Z,31.25
2022-09-18T20:20:16.172Z,31.26
2022-09-18T20:23:09.344Z,31.23
2022-09-18T20:25:43.209Z,31.24
2022-09-18T20:28:14.435Z,31.16
2022-09-18T20:30:46.400Z,31.18
2022-09-18T20:33:22.851Z,31.14
2022-09-18T20:36:00.622Z,31.23
2022-09-18T20:38:41.972Z,31.23
2022-09-18T20:41:23.491Z,31.16
2022-09-18T20:44:06.597Z,31.08
2022-09-18T20:46:38.327Z,31.01
2022-09-18T20:49:10.255Z,31.04
2022-09-18T20:51:52.399Z,31.07
2022-09-18T20:54:33.374Z,31.06
2022-09-18T20:57:24.410Z,31.12
2022-09-18T20:59:56.438Z,31.14
2022-09-18T21:02:33.354Z,31.43
2022-09-18T21:05:15.954Z,31.33
2022-09-18T21:08:01.928Z,31.30
2022-09-18T21:10:48.631Z,31.27
2022-09-18T21:13:21.786Z,31.02
2022-09-18T21:15:53.019Z,30.97
2022-09-18T21:18:25.738Z,31.01
2022-09-18T21:21:10.109Z,31.20
2022-09-18T21:24:03.405Z,31.04
2022-09-18T21:26:40.449Z,31.13
2022-09-18T21:29:28.415Z,31.16
2022-09-18T21:32:03.018Z,31.12
2022-09-18T21:35:07.059Z,31.07
2022-09-18T21:37:59.006Z,30.93
2022-09-18T21:40:30.128Z,30.79
2022-09-18T21:43:14.025Z,30.81
2022-09-18T21:45:49.801Z,30.92
2022-09-18T21:48:20.808Z,30.82
2022-09-18T21:51:02.756Z,31.02
2022-09-18T21:53:34.846Z,30.96
2022-09-18T21:56:09.589Z,30.91
2022-09-18T21:58:42.450Z,30.95
2022-09-18T22:01:44.656Z,30.96
2022-09-18T22:04:16.459Z,30.85
2022-09-18T22:06:49.017Z,30.80
2022-09-18T22:09:26.178Z,30.79
2022-09-18T22:11:59.321Z,30.95
2022-09-18T22:14:38.505Z,31.04
2022-09-18T22:17:11.472Z,31.00
2022-09-18T22:19:43.928Z,30.92
2022-09-18T22:22:14.128Z,31.10
2022-09-18T22:24:46.753Z,30.91
2022-09-18T22:27:19.538Z,30.86
2022-09-18T22:29:55.370Z,30.94
2022-09-18T22:32:26.761Z,30.82
2022-09-18T22:35:08.417Z,30.85
2022-09-18T22:37:39.758Z,30.74
2022-09-18T22:40:11.860Z,30.70
2022-09-18T22:42:43.690Z,30.76
2022-09-18T22:45:14.851Z,30.73
2022-09-18T22:48:04.822Z,30.89
2022-09-18T22:50:37.281Z,30.66
2022-09-18T22:53:09.230Z,30.59
2022-09-18T22:55:40.572Z,30.58
2022-09-18T22:58:18.850Z,30.78
2022-09-18T23:00:50.813Z,30.62
2022-09-18T23:03:32.424Z,30.58
2022-09-18T23:06:08.133Z,30.57
2022-09-18T23:08:41.589Z,30.57
2022-09-18T23:11:24.090Z,30.70
2022-09-18T23:14:03.728Z,30.72
2022-09-18T23:16:37.876Z,30.74
2022-09-18T23:19:15.256Z,30.71
2022-09-18T23:21:47.175Z,30.53
2022-09-18T23:24:22.466Z,30.57
2022-09-18T23:26:55.441Z,30.55
2022-09-18T23:29:29.151Z,30.30
2022-09-18T23:32:00.844Z,30.35
2022-09-18T23:34:35.529Z,30.59
2022-09-18T23:37:06.346Z,30.49
2022-09-18T23:39:38.289Z,30.45
2022-09-18T23:42:11.361Z,30.53
2022-09-18T23:44:43.914Z,30.45
2022-09-18T23:47:15.373Z,30.41
2022-09-18T23:49:47.327Z,30.37
2022-09-18T23:52:19.308Z,30.34
2022-09-18T23:54:50.805Z,30.41
2022-09-18T23:57:23.918Z,30.41
2022-09-18T23:59:55.868Z,30.37
